Time;durP1;ratioP1;P1;durP2;ratioP2;P2;SDS_P1;SDS_P2;PMS_P1;PMS_P2;Temp;Humidity;BMP_temperature;BMP_pressure;BME280_temperature;BME280_humidity;BME280_pressure;Samples;Min_cycle;Max_cycle;Signal;HPM_P1;HPM_P2
2021/03/01 00:01:07;;;;;;;30.17;15.40;;;2.70;90.40;;;;;;5012830;28;20504;-73
2021/03/01 00:03:33;;;;;;;30.67;13.90;;;2.80;90.00;;;;;;5013334;28;20141;-73
2021/03/01 00:06:00;;;;;;;27.10;14.23;;;2.80;89.90;;;;;;5012776;28;20421;-73
2021/03/01 00:08:26;;;;;;;28.00;15.05;;;2.90;88.90;;;;;;5013059;28;20026;-73
2021/03/01 00:10:52;;;;;;;23.60;13.68;;;2.90;88.50;;;;;;5012814;28;20536;-73
2021/03/01 00:13:19;;;;;;;24.13;12.07;;;2.70;86.80;;;;;;5013005;28;20030;-73
2021/03/01 00:15:44;;;;;;;29.65;12.90;;;2.40;89.20;;;;;;5012642;28;20461;-74
2021/03/01 00:18:10;;;;;;;21.75;12.35;;;2.40;90.30;;;;;;4995196;28;20018;-73
2021/03/01 00:20:36;;;;;;;26.70;13.88;;;2.60;89.90;;;;;;5011383;28;20040;-73
2021/03/01 00:23:02;;;;;;;22.77;12.60;;;2.50;89.40;;;;;;5012740;28;20026;-73
2021/03/01 00:25:28;;;;;;;22.50;11.85;;;2.30;88.60;;;;;;5011348;28;20102;-73
2021/03/01 00:27:53;;;;;;;19.38;11.77;;;2.20;89.30;;;;;;5012657;28;20037;-73
2021/03/01 00:30:20;;;;;;;20.05;12.15;;;2.00;88.10;;;;;;5012745;28;20030;-73
2021/03/01 00:32:45;;;;;;;21.20;12.13;;;1.90;90.20;;;;;;5012343;28;20029;-73
2021/03/01 00:35:12;;;;;;;18.08;11.00;;;1.80;90.70;;;;;;5011315;28;20180;-73
2021/03/01 00:37:38;;;;;;;22.42;11.75;;;1.70;90.70;;;;;;5012393;28;20025;-73
2021/03/01 00:40:05;;;;;;;19.13;11.93;;;1.60;92.00;;;;;;5012580;28;20022;-73
2021/03/01 00:42:31;;;;;;;24.45;11.55;;;1.70;92.60;;;;;;5027393;28;20449;-73
2021/03/01 00:44:56;;;;;;;20.85;11.77;;;1.80;92.60;;;;;;5012483;28;20083;-73
2021/03/01 00:47:22;;;;;;;19.65;12.32;;;1.90;91.60;;;;;;5012401;28;20496;-73
2021/03/01 00:49:48;;;;;;;22.25;13.55;;;2.00;91.20;;;;;;5013145;28;20084;-73
2021/03/01 00:52:14;;;;;;;27.88;14.00;;;2.10;91.30;;;;;;5012625;28;20125;-73
2021/03/01 00:54:39;;;;;;;30.25;13.60;;;2.10;90.40;;;;;;5012812;28;20046;-73
2021/03/01 00:57:05;;;;;;;23.38;13.38;;;2.20;90.40;;;;;;5012061;28;20029;-73
2021/03/01 00:59:31;;;;;;;26.35;14.82;;;2.20;90.20;;;;;;5012212;28;20385;-73
2021/03/01 01:01:57;;;;;;;21.27;12.15;;;2.40;89.00;;;;;;5012122;28;20022;-73
2021/03/01 01:04:23;;;;;;;24.13;12.65;;;2.30;88.80;;;;;;5011918;28;20076;-73
2021/03/01 01:06:49;;;;;;;27.50;14.77;;;2.40;88.60;;;;;;5012095;28;20112;-73
2021/03/01 01:09:16;;;;;;;25.52;13.73;;;2.40;87.10;;;;;;5010425;28;20403;-73
2021/03/01 01:11:42;;;;;;;23.38;11.70;;;2.40;89.10;;;;;;5011823;28;20508;-73
2021/03/01 01:14:08;;;;;;;24.58;13.00;;;2.40;88.80;;;;;;5011619;28;20151;-74
2021/03/01 01:16:34;;;;;;;22.70;12.80;;;2.30;89.00;;;;;;5011769;28;20513;-73
2021/03/01 01:19:00;;;;;;;23.58;11.90;;;1.90;88.90;;;;;;5011471;28;20034;-73
2021/03/01 01:21:25;;;;;;;24.10;12.48;;;1.60;88.90;;;;;;5011797;28;20029;-73
2021/03/01 01:23:51;;;;;;;17.05;11.60;;;1.50;90.20;;;;;;5010253;28;20080;-73
2021/03/01 01:26:17;;;;;;;20.05;11.60;;;1.30;90.10;;;;;;5011762;28;20053;-73
2021/03/01 01:28:42;;;;;;;24.13;11.60;;;1.30;91.10;;;;;;5010042;28;20116;-73
2021/03/01 01:31:08;;;;;;;18.58;11.75;;;1.30;91.20;;;;;;5011521;28;20470;-73
2021/03/01 01:33:34;;;;;;;18.73;9.93;;;1.20;92.00;;;;;;5011318;28;20018;-73
2021/03/01 01:36:00;;;;;;;18.80;11.18;;;1.20;92.20;;;;;;5010095;28;20034;-73
2021/03/01 01:38:25;;;;;;;23.45;11.70;;;1.30;93.30;;;;;;5011017;28;20425;-73
2021/03/01 01:40:51;;;;;;;21.17;11.20;;;1.40;92.00;;;;;;5009833;28;20030;-73
2021/03/01 01:43:17;;;;;;;26.15;12.45;;;1.20;91.50;;;;;;5011450;28;20026;-73
2021/03/01 01:45:43;;;;;;;22.30;11.18;;;1.20;91.90;;;;;;5011112;28;20038;-73
2021/03/01 01:48:09;;;;;;;20.38;12.23;;;1.10;92.90;;;;;;5010065;28;20030;-73
2021/03/01 01:50:34;;;;;;;21.65;12.52;;;1.10;93.70;;;;;;5026272;28;20122;-73
2021/03/01 01:53:00;;;;;;;23.80;11.57;;;1.00;93.40;;;;;;5009998;28;20029;-73
2021/03/01 01:55:27;;;;;;;19.95;11.65;;;1.00;93.30;;;;;;5010976;28;20037;-73
2021/03/01 01:57:53;;;;;;;21.73;12.27;;;1.20;95.00;;;;;;5011254;28;20026;-73
2021/03/01 02:03:35;;;;;;;19.95;12.07;;;1.30;94.40;;;;;;5011128;28;20026;-73
2021/03/01 02:06:18;;;;;;;21.27;12.07;;;1.40;95.50;;;;;;5010993;28;20030;-73
2021/03/01 02:09:05;;;;;;;20.58;11.85;;;1.30;94.00;;;;;;5009961;28;20386;-73
2021/03/01 02:11:49;;;;;;;25.25;13.10;;;1.40;94.50;;;;;;5009672;28;20436;-73
2021/03/01 02:14:21;;;;;;;27.40;13.95;;;1.50;92.80;;;;;;5011198;28;20044;-73
2021/03/01 02:16:47;;;;;;;27.08;13.75;;;1.50;92.70;;;;;;5010735;28;20019;-73
2021/03/01 02:19:15;;;;;;;28.00;13.38;;;1.60;92.50;;;;;;5011120;28;20149;-73
2021/03/01 02:21:45;;;;;;;25.55;12.63;;;1.70;92.00;;;;;;5010878;28;20030;-73
2021/03/01 02:24:17;;;;;;;24.83;12.57;;;1.60;91.60;;;;;;5011101;28;20025;-73
2021/03/01 02:26:46;;;;;;;23.70;11.65;;;1.60;92.80;;;;;;5009619;28;20116;-73
2021/03/01 02:29:15;;;;;;;21.85;12.40;;;1.50;93.20;;;;;;5011097;28;20135;-73
2021/03/01 02:31:44;;;;;;;22.17;12.52;;;1.70;92.80;;;;;;5009363;28;20049;-73
2021/03/01 02:34:13;;;;;;;26.70;13.95;;;1.60;92.10;;;;;;5010976;28;20092;-73
2021/03/01 02:36:42;;;;;;;23.92;12.50;;;1.60;92.70;;;;;;5010425;28;20022;-73
2021/03/01 02:39:09;;;;;;;23.35;13.38;;;1.50;92.40;;;;;;5011654;28;20022;-73
2021/03/01 02:41:36;;;;;;;21.35;12.50;;;1.40;92.90;;;;;;5009712;28;20482;-73
2021/03/01 02:44:03;;;;;;;22.20;13.18;;;1.50;92.80;;;;;;5010871;28;20033;-73
2021/03/01 02:46:30;;;;;;;32.10;13.88;;;1.70;92.30;;;;;;5009384;28;20394;-73
2021/03/01 02:48:56;;;;;;;20.52;11.70;;;1.50;92.00;;;;;;5011077;28;20026;-73
2021/03/01 02:51:23;;;;;;;37.85;12.80;;;1.40;92.20;;;;;;5013095;28;20038;-73
2021/03/01 02:53:49;;;;;;;23.00;13.05;;;1.30;92.40;;;;;;5013559;28;20033;-73
2021/03/01 02:56:17;;;;;;;23.98;12.57;;;1.20;92.00;;;;;;5014481;28;20104;-73
2021/03/01 02:58:45;;;;;;;20.60;11.43;;;1.10;92.20;;;;;;5014193;28;20029;-73
2021/03/01 03:01:11;;;;;;;24.30;12.65;;;1.00;92.60;;;;;;5014358;28;20030;-73
2021/03/01 03:03:40;;;;;;;24.85;11.95;;;0.90;94.30;;;;;;5029185;28;20022;-73
2021/03/01 03:06:12;;;;;;;20.95;11.65;;;1.10;95.40;;;;;;5014327;28;20091;-73
2021/03/01 03:08:38;;;;;;;;;;;1.00;96.10;;;;;;5014479;28;20124;-73
2021/03/01 03:11:04;;;;;;;24.60;12.25;;;0.90;97.20;;;;;;5012923;28;19992;-73
2021/03/01 03:13:34;;;;;;;21.15;9.75;;;0.90;99.10;;;;;;5013695;28;20022;-73
2021/03/01 03:16:01;;;;;;;21.70;12.20;;;1.00;99.90;;;;;;5012808;28;20081;-73
2021/03/01 03:18:27;;;;;;;19.48;12.13;;;1.20;99.20;;;;;;5012651;28;20018;-73
2021/03/01 03:20:53;;;;;;;17.65;10.30;;;1.40;97.70;;;;;;5013943;28;20026;-73
2021/03/01 03:23:19;;;;;;;28.33;14.57;;;1.60;96.50;;;;;;5012393;28;20030;-73
2021/03/01 03:25:45;;;;;;;35.80;14.90;;;1.40;95.30;;;;;;5014137;28;20459;-73
2021/03/01 03:28:11;;;;;;;20.90;11.75;;;1.50;96.00;;;;;;5013491;28;20477;-73
2021/03/01 03:30:37;;;;;;;17.98;10.52;;;1.10;93.90;;;;;;5013683;28;20031;-73
2021/03/01 03:33:03;;;;;;;19.75;10.65;;;0.90;94.70;;;;;;5013418;28;20022;-73
2021/03/01 03:35:30;;;;;;;21.75;11.38;;;0.90;93.90;;;;;;5013592;28;20034;-73
2021/03/01 03:38:03;;;;;;;22.58;10.35;;;0.80;93.00;;;;;;5012265;28;20072;-73
2021/03/01 03:40:29;;;;;;;19.63;9.90;;;0.70;92.80;;;;;;5012114;28;20056;-73
2021/03/01 03:42:57;;;;;;;18.60;10.10;;;0.60;93.20;;;;;;5013626;28;20129;-73
2021/03/01 03:45:24;;;;;;;23.10;11.63;;;0.70;94.20;;;;;;5013293;28;20018;-73
2021/03/01 03:47:52;;;;;;;17.65;9.35;;;0.70;92.90;;;;;;5013549;28;20497;-73
2021/03/01 03:50:21;;;;;;;16.50;9.90;;;0.60;92.40;;;;;;5013168;28;20619;-73
2021/03/01 03:52:53;;;;;;;24.60;11.13;;;0.60;92.80;;;;;;5013384;28;20536;-73
2021/03/01 03:55:21;;;;;;;21.70;11.20;;;0.70;93.50;;;;;;5011909;28;20030;-73
2021/03/01 03:57:55;;;;;;;16.27;9.77;;;1.00;93.30;;;;;;5013269;28;20374;-73
2021/03/01 04:00:23;;;;;;;18.88;10.82;;;1.10;92.40;;;;;;5012512;28;20021;-73
2021/03/01 04:02:53;;;;;;;23.35;10.60;;;1.10;92.60;;;;;;5013181;28;20049;-73
2021/03/01 04:05:21;;;;;;;25.85;10.45;;;1.10;92.10;;;;;;5012938;28;20034;-73
2021/03/01 04:07:48;;;;;;;20.15;11.25;;;1.10;92.70;;;;;;5013176;28;20121;-73
2021/03/01 04:10:14;;;;;;;15.93;10.10;;;0.80;92.00;;;;;;5012927;28;20076;-73
2021/03/01 04:12:42;;;;;;;22.92;10.10;;;0.70;92.50;;;;;;5013028;28;20026;-73
2021/03/01 04:15:13;;;;;;;16.95;9.80;;;0.70;93.60;;;;;;5012804;28;20101;-73
2021/03/01 04:17:41;;;;;;;19.83;10.45;;;0.60;93.00;;;;;;5011916;28;20366;-73
2021/03/01 04:20:10;;;;;;;20.42;9.88;;;0.30;93.70;;;;;;5011825;28;20026;-73
2021/03/01 04:22:37;;;;;;;31.05;8.73;;;0.20;94.20;;;;;;5013639;28;20496;-73
2021/03/01 04:25:06;;;;;;;19.70;10.27;;;0.00;94.20;;;;;;5013048;28;20022;-73
2021/03/01 04:27:33;;;;;;;16.88;10.88;;;0.00;96.30;;;;;;5028207;28;20033;-73
2021/03/01 04:30:01;;;;;;;20.75;11.60;;;0.00;96.90;;;;;;5012822;28;20153;-73
2021/03/01 04:32:28;;;;;;;21.15;11.05;;;0.20;97.50;;;;;;5012458;28;20505;-73
2021/03/01 04:34:55;;;;;;;18.15;10.80;;;0.20;96.20;;;;;;5028189;23;20072;-75
2021/03/01 04:37:21;;;;;;;22.05;11.50;;;0.40;96.90;;;;;;5032353;28;20408;-75
2021/03/01 04:39:46;;;;;;;21.08;11.80;;;0.50;96.60;;;;;;5032567;28;20026;-75
2021/03/01 04:42:12;;;;;;;20.65;11.73;;;0.60;96.50;;;;;;5032471;28;20026;-75
2021/03/01 04:44:39;;;;;;;20.77;11.43;;;0.80;96.40;;;;;;5014673;28;20052;-75
2021/03/01 04:47:07;;;;;;;18.10;9.95;;;0.90;95.60;;;;;;5032241;28;20021;-75
2021/03/01 04:49:34;;;;;;;19.83;10.25;;;0.80;94.30;;;;;;5032292;28;20040;-75
2021/03/01 04:52:00;;;;;;;16.65;10.38;;;0.60;94.60;;;;;;5032057;28;20029;-75
2021/03/01 04:54:28;;;;;;;23.20;10.68;;;0.50;95.80;;;;;;5014512;28;20087;-75
2021/03/01 04:56:53;;;;;;;17.50;10.65;;;0.60;95.80;;;;;;5031924;28;20277;-75
2021/03/01 04:59:20;;;;;;;34.08;11.82;;;0.70;96.50;;;;;;5014190;28;20051;-75
2021/03/01 05:01:49;;;;;;;23.30;11.50;;;0.60;96.40;;;;;;5030573;28;20052;-75
2021/03/01 05:04:15;;;;;;;21.90;11.82;;;0.80;95.20;;;;;;5014405;28;20062;-75
2021/03/01 05:06:42;;;;;;;24.83;12.00;;;0.90;95.20;;;;;;5014147;28;20030;-75
2021/03/01 05:09:09;;;;;;;23.35;12.32;;;1.10;95.60;;;;;;5031793;28;20064;-75
2021/03/01 05:11:36;;;;;;;29.25;11.27;;;1.20;94.60;;;;;;5031262;28;20030;-74
2021/03/01 05:14:04;;;;;;;26.58;11.68;;;1.30;93.60;;;;;;5031309;28;20393;-75
2021/03/01 05:16:30;;;;;;;20.30;12.00;;;1.30;93.60;;;;;;5014210;28;20013;-75
2021/03/01 05:18:56;;;;;;;19.13;12.50;;;1.30;93.50;;;;;;5031364;28;20026;-74
2021/03/01 05:21:23;;;;;;;24.48;11.70;;;1.50;93.90;;;;;;5031709;28;20100;-75
2021/03/01 05:23:49;;;;;;;23.50;12.38;;;1.50;93.50;;;;;;5031683;28;20489;-75
2021/03/01 05:26:16;;;;;;;28.00;13.85;;;1.50;93.00;;;;;;4997323;28;20025;-75
2021/03/01 05:28:42;;;;;;;27.40;12.57;;;1.40;94.30;;;;;;5031363;28;20051;-75
2021/03/01 05:31:08;;;;;;;24.00;14.35;;;1.40;94.40;;;;;;5031449;28;20038;-75
2021/03/01 05:33:34;;;;;;;31.42;13.35;;;1.30;93.80;;;;;;4997173;28;20499;-75
2021/03/01 05:36:01;;;;;;;26.15;13.32;;;1.00;94.10;;;;;;5029874;28;20065;-75
2021/03/01 05:38:27;;;;;;;23.45;13.15;;;0.80;95.30;;;;;;5031112;28;20140;-75
2021/03/01 05:40:53;;;;;;;26.67;13.25;;;1.00;98.20;;;;;;4997161;28;20028;-75
2021/03/01 05:43:23;;;;;;;21.50;13.60;;;1.00;97.50;;;;;;5031084;28;20120;-75
2021/03/01 05:45:50;;;;;;;29.08;12.77;;;1.10;96.90;;;;;;5031257;28;20047;-75
2021/03/01 05:48:20;;;;;;;49.35;17.83;;;1.30;95.60;;;;;;5031248;28;20104;-75
2021/03/01 05:50:47;;;;;;;24.90;14.00;;;1.00;96.80;;;;;;5031310;28;20443;-75
2021/03/01 05:53:18;;;;;;;33.47;13.55;;;0.90;97.20;;;;;;5013821;28;20366;-75
2021/03/01 05:55:43;;;;;;;24.33;13.45;;;0.90;95.30;;;;;;5030895;28;20017;-75
2021/03/01 05:58:10;;;;;;;33.67;15.15;;;0.80;95.50;;;;;;5031243;28;20218;-75
2021/03/01 06:00:36;;;;;;;29.70;13.82;;;0.70;97.40;;;;;;5031149;28;20066;-75
2021/03/01 06:03:03;;;;;;;25.55;13.52;;;0.70;97.60;;;;;;5031160;28;20021;-74
2021/03/01 06:05:29;;;;;;;27.50;14.30;;;0.70;98.90;;;;;;5030863;28;20024;-75
2021/03/01 06:07:56;;;;;;;34.30;15.65;;;0.90;99.90;;;;;;5031608;28;20029;-75
2021/03/01 06:10:22;;;;;;;28.80;15.45;;;0.90;98.40;;;;;;5031383;28;20014;-75
2021/03/01 06:12:48;;;;;;;26.98;15.18;;;1.00;97.60;;;;;;5031735;28;20480;-75
2021/03/01 06:15:15;;;;;;;28.20;14.68;;;0.80;97.60;;;;;;5013212;28;20021;-75
2021/03/01 06:17:40;;;;;;;31.00;16.35;;;0.90;98.40;;;;;;5013119;28;20119;-75
2021/03/01 06:20:10;;;;;;;28.90;16.35;;;1.10;97.90;;;;;;5030679;28;20030;-75
2021/03/01 06:22:41;;;;;;;41.90;16.45;;;1.10;97.40;;;;;;5032175;28;20072;-75
2021/03/01 06:25:14;;;;;;;31.38;16.73;;;1.10;98.30;;;;;;5026254;28;20025;-74
2021/03/01 06:27:50;;;;;;;24.52;15.23;;;1.20;99.70;;;;;;5035918;28;20037;-75
2021/03/01 06:30:19;;;;;;;24.05;14.77;;;1.40;99.90;;;;;;5053382;28;20028;-75
2021/03/01 06:33:10;;;;;;;27.98;15.38;;;1.60;99.90;;;;;;5048294;28;20026;-75
2021/03/01 06:35:48;;;;;;;36.33;15.80;;;1.50;99.90;;;;;;5048694;28;20104;-75
2021/03/01 06:38:38;;;;;;;28.70;13.40;;;1.50;97.60;;;;;;5054091;28;20025;-75
2021/03/01 06:41:19;;;;;;;63.38;29.13;;;1.50;99.10;;;;;;5031754;28;20025;-75
2021/03/01 06:43:51;;;;;;;54.38;17.85;;;1.50;96.60;;;;;;5054145;28;20494;-74
2021/03/01 06:46:17;;;;;;;;;;;1.40;93.50;;;;;;5053458;28;20495;-75
2021/03/01 06:48:42;;;;;;;48.03;19.13;;;1.30;93.80;;;;;;5035930;28;19905;-75
2021/03/01 06:51:09;;;;;;;26.08;14.82;;;1.30;94.20;;;;;;5053587;28;20029;-75
2021/03/01 06:53:36;;;;;;;31.25;14.50;;;1.40;94.50;;;;;;5053154;28;20051;-75
2021/03/01 06:56:16;;;;;;;27.83;14.35;;;1.20;94.70;;;;;;5035348;28;20025;-74
2021/03/01 06:58:44;;;;;;;23.55;13.98;;;1.40;95.30;;;;;;5053144;28;20021;-75
2021/03/01 07:01:14;;;;;;;29.85;14.93;;;1.70;96.20;;;;;;5027714;28;20476;-75
2021/03/01 07:03:41;;;;;;;30.67;14.95;;;1.90;95.50;;;;;;5053260;28;20025;-75
2021/03/01 07:06:08;;;;;;;24.95;14.48;;;2.10;96.30;;;;;;5053262;28;20056;-75
2021/03/01 07:08:38;;;;;;;25.92;14.45;;;2.40;95.10;;;;;;5052218;28;20028;-75
2021/03/01 07:11:20;;;;;;;23.88;14.57;;;2.60;94.90;;;;;;5053137;28;20516;-75
2021/03/01 07:13:46;;;;;;;27.90;15.77;;;2.70;94.30;;;;;;5029794;28;20025;-75
2021/03/01 07:16:12;;;;;;;35.00;16.27;;;2.80;93.60;;;;;;5043554;28;20029;-75
2021/03/01 07:18:40;;;;;;;24.70;14.60;;;2.90;94.00;;;;;;5053012;28;20041;-75
2021/03/01 07:21:11;;;;;;;25.83;14.25;;;2.90;93.90;;;;;;5034764;28;20516;-75
2021/03/01 07:23:40;;;;;;;25.08;14.73;;;2.90;93.50;;;;;;5052831;28;20052;-75
2021/03/01 07:26:09;;;;;;;32.58;15.68;;;2.90;94.10;;;;;;5052253;28;20500;-74
2021/03/01 07:28:38;;;;;;;22.73;13.65;;;2.70;95.10;;;;;;5052718;28;20028;-75
2021/03/01 07:31:06;;;;;;;25.98;15.55;;;2.60;96.80;;;;;;5052245;28;20037;-75
2021/03/01 07:33:32;;;;;;;27.00;15.38;;;2.40;99.90;;;;;;5052529;28;20029;-75
2021/03/01 07:35:59;;;;;;;23.48;15.00;;;2.50;99.90;;;;;;5051411;28;20553;-74
2021/03/01 07:38:25;;;;;;;26.92;15.60;;;2.50;99.90;;;;;;5052281;28;20052;-75
2021/03/01 07:40:51;;;;;;;33.90;17.33;;;2.50;99.90;;;;;;5052344;28;20029;-75
2021/03/01 07:43:18;;;;;;;23.63;15.02;;;2.40;99.90;;;;;;5052274;28;20032;-75
2021/03/01 07:45:45;;;;;;;29.67;16.35;;;2.50;99.90;;;;;;5052521;28;20062;-75
2021/03/01 07:48:15;;;;;;;31.42;15.98;;;2.60;99.90;;;;;;5052543;28;20029;-75
2021/03/01 07:50:46;;;;;;;28.92;16.35;;;2.60;99.90;;;;;;5052637;28;20025;-75
2021/03/01 07:53:46;;;;;;;22.30;14.40;;;2.80;99.90;;;;;;5052296;28;20112;-75
2021/03/01 07:56:37;;;;;;;21.88;14.50;;;2.60;99.90;;;;;;5047321;28;20028;-75
2021/03/01 07:59:08;;;;;;;25.27;14.93;;;2.80;99.90;;;;;;5026017;28;20392;-76
2021/03/01 08:01:34;;;;;;;24.95;15.38;;;2.80;99.90;;;;;;5052674;28;20539;-75
2021/03/01 08:04:00;;;;;;;49.80;18.08;;;2.70;99.90;;;;;;5052650;28;20052;-75
2021/03/01 08:06:56;;;;;;;33.45;14.93;;;2.80;99.90;;;;;;5041940;28;20049;-75
2021/03/01 08:09:50;;;;;;;24.08;14.48;;;2.90;99.90;;;;;;5052274;28;20025;-75
2021/03/01 08:12:28;;;;;;;23.92;14.13;;;3.10;99.90;;;;;;5051538;28;20021;-75
2021/03/01 08:15:03;;;;;;;28.00;14.63;;;3.00;99.90;;;;;;5027882;28;20342;-75
2021/03/01 08:17:34;;;;;;;27.30;14.98;;;3.00;99.90;;;;;;5029579;28;20017;-75
2021/03/01 08:20:23;;;;;;;28.67;13.80;;;3.00;99.90;;;;;;5052394;28;20025;-75
2021/03/01 08:23:07;;;;;;;35.50;15.48;;;3.10;99.90;;;;;;5051331;28;20036;-75
2021/03/01 08:28:16;;;;;;;22.65;12.00;;;3.20;99.90;;;;;;5043853;28;20112;-75
2021/03/01 08:30:42;;;;;;;;;;;3.30;99.90;;;;;;5052147;28;20155;-75
2021/03/01 08:33:08;;;;;;;21.30;12.63;;;3.30;99.10;;;;;;5033434;28;19912;-75
2021/03/01 08:35:41;;;;;;;19.50;11.00;;;3.30;99.20;;;;;;5051405;28;20037;-75
2021/03/01 08:38:08;;;;;;;23.33;12.00;;;3.20;99.80;;;;;;5051485;28;20055;-75
2021/03/01 08:40:34;;;;;;;32.35;12.15;;;3.40;99.90;;;;;;5050879;28;20029;-75
2021/03/01 08:43:02;;;;;;;27.52;12.10;;;3.60;99.40;;;;;;5051350;28;20040;-75
2021/03/01 08:45:32;;;;;;;22.80;12.65;;;3.60;98.50;;;;;;5051085;28;20100;-74
2021/03/01 08:48:00;;;;;;;20.33;12.55;;;3.70;98.10;;;;;;5051458;28;20083;-76
2021/03/01 08:50:27;;;;;;;17.98;10.90;;;3.80;97.60;;;;;;5032682;28;20119;-75
2021/03/01 08:52:53;;;;;;;26.13;11.90;;;3.80;96.60;;;;;;5033534;28;20415;-75
2021/03/01 08:55:21;;;;;;;14.00;10.32;;;3.80;95.80;;;;;;5050614;28;20017;-75
2021/03/01 08:58:12;;;;;;;17.65;11.13;;;3.90;95.80;;;;;;5051213;28;20025;-75
2021/03/01 09:00:59;;;;;;;20.70;11.15;;;3.90;95.50;;;;;;5051245;28;20043;-75
2021/03/01 09:03:29;;;;;;;19.48;12.15;;;4.00;95.40;;;;;;5050445;28;20092;-75
2021/03/01 09:06:05;;;;;;;17.75;10.32;;;4.30;95.10;;;;;;5032988;28;20380;-75
2021/03/01 09:08:32;;;;;;;16.98;9.50;;;4.40;94.30;;;;;;5050591;28;20036;-75
2021/03/01 09:11:01;;;;;;;18.75;10.88;;;4.50;93.30;;;;;;5050745;28;20456;-75
2021/03/01 09:13:27;;;;;;;18.40;10.90;;;4.50;93.00;;;;;;5050024;28;20028;-75
2021/03/01 09:15:54;;;;;;;25.08;10.30;;;4.50;92.90;;;;;;5044172;28;20021;-76
2021/03/01 09:18:21;;;;;;;29.25;10.93;;;4.50;92.90;;;;;;5050086;28;20013;-75
2021/03/01 09:20:49;;;;;;;16.13;10.52;;;4.50;92.70;;;;;;5050907;28;20036;-75
2021/03/01 09:23:50;;;;;;;17.10;10.95;;;4.70;92.30;;;;;;5050579;28;20344;-75
2021/03/01 09:26:32;;;;;;;20.17;10.55;;;5.00;92.10;;;;;;5049977;28;20033;-75
2021/03/01 09:28:59;;;;;;;;;;;5.20;91.20;;;;;;5050636;28;20040;-75
2021/03/01 09:31:26;;;;;;;31.30;10.23;;;5.30;90.10;;;;;;5050194;28;20025;-75
2021/03/01 09:33:52;;;;;;;16.10;10.23;;;5.40;90.80;;;;;;5032337;28;20514;-75
2021/03/01 09:36:18;;;;;;;13.15;9.52;;;5.80;90.00;;;;;;5049516;28;20087;-76
2021/03/01 09:38:52;;;;;;;23.67;9.95;;;6.30;86.20;;;;;;5050560;28;20029;-75
2021/03/01 09:41:18;;;;;;;19.95;10.73;;;6.50;84.40;;;;;;5049898;28;20037;-75
2021/03/01 09:43:48;;;;;;;17.38;10.25;;;6.70;84.20;;;;;;5032195;28;20029;-75
2021/03/01 09:46:16;;;;;;;16.13;10.05;;;6.90;82.10;;;;;;5049648;28;20032;-75
2021/03/01 09:48:50;;;;;;;20.98;9.93;;;7.30;81.20;;;;;;5032539;28;20134;-75
2021/03/01 09:51:17;;;;;;;16.33;9.80;;;7.80;78.50;;;;;;5050225;28;20032;-76
2021/03/01 09:53:43;;;;;;;15.98;11.00;;;8.30;75.70;;;;;;5050226;28;20031;-75
2021/03/01 09:56:09;;;;;;;16.25;9.15;;;8.50;75.50;;;;;;5049960;28;20048;-75
2021/03/01 09:58:41;;;;;;;18.88;9.52;;;8.80;73.40;;;;;;5049305;28;20106;-75
2021/03/01 10:01:19;;;;;;;33.75;10.73;;;9.10;71.80;;;;;;5049697;28;20036;-76
2021/03/01 10:03:49;;;;;;;21.48;9.60;;;9.00;71.20;;;;;;5031806;28;20029;-75
2021/03/01 10:06:17;;;;;;;27.77;10.63;;;9.50;70.00;;;;;;5040941;28;20033;-75
2021/03/01 10:08:44;;;;;;;19.88;10.07;;;9.70;69.90;;;;;;5015210;28;20025;-75
2021/03/01 10:11:39;;;;;;;12.93;9.43;;;10.10;68.30;;;;;;5049959;28;20033;-76
2021/03/01 10:14:10;;;;;;;13.32;9.35;;;9.90;67.50;;;;;;5009047;28;20170;-75
2021/03/01 10:16:41;;;;;;;15.63;8.93;;;10.20;67.30;;;;;;5049644;28;20017;-76
2021/03/01 10:19:09;;;;;;;10.70;8.57;;;10.70;65.40;;;;;;5040718;28;20052;-75
2021/03/01 10:21:35;;;;;;;24.48;9.13;;;11.00;64.30;;;;;;5048079;28;20029;-76
2021/03/01 10:24:06;;;;;;;23.20;8.65;;;11.50;61.50;;;;;;5032121;28;20496;-76
2021/03/01 10:26:47;;;;;;;8.55;7.03;;;12.10;59.40;;;;;;5049699;28;20052;-76
2021/03/01 10:29:13;;;;;;;12.80;6.57;;;12.40;57.10;;;;;;5050125;28;20107;-75
2021/03/01 10:31:39;;;;;;;9.52;6.57;;;12.30;56.60;;;;;;5048393;28;20028;-76
2021/03/01 10:34:14;;;;;;;9.32;6.10;;;12.30;55.80;;;;;;5023471;28;20024;-76
2021/03/01 10:36:45;;;;;;;12.65;5.78;;;13.00;54.90;;;;;;5010798;28;20037;-76
2021/03/01 10:39:16;;;;;;;;;;;13.20;53.50;;;;;;5049679;28;20037;-76
2021/03/01 10:41:53;;;;;;;18.50;8.23;;;13.60;52.90;;;;;;5038879;28;19909;-76
2021/03/01 10:44:31;;;;;;;9.60;5.70;;;13.90;52.40;;;;;;5041418;28;20021;-76
2021/03/01 10:46:57;;;;;;;12.43;8.07;;;14.10;52.00;;;;;;5049390;28;20033;-76
2021/03/01 10:49:28;;;;;;;9.52;6.93;;;14.40;52.10;;;;;;5049013;28;20096;-76
2021/03/01 10:51:57;;;;;;;28.30;7.57;;;14.20;51.50;;;;;;5050691;28;20029;-77
2021/03/01 10:54:24;;;;;;;12.68;7.05;;;14.50;53.00;;;;;;5049210;28;20275;-76
2021/03/01 10:56:50;;;;;;;12.38;6.97;;;14.60;51.30;;;;;;5030975;28;20477;-76
2021/03/01 10:59:16;;;;;;;29.48;7.60;;;14.80;49.70;;;;;;5049296;28;20029;-76
2021/03/01 11:01:45;;;;;;;9.80;6.80;;;14.60;49.80;;;;;;5048715;28;20025;-77
2021/03/01 11:04:12;;;;;;;12.68;6.53;;;14.50;49.90;;;;;;5049140;28;20022;-76
2021/03/01 11:06:38;;;;;;;11.60;6.63;;;14.50;51.20;;;;;;5048801;28;20025;-76
2021/03/01 11:09:06;;;;;;;15.13;7.65;;;15.10;50.70;;;;;;5049178;28;20048;-76
2021/03/01 11:11:33;;;;;;;15.98;7.35;;;15.40;49.50;;;;;;5033320;28;20456;-77
2021/03/01 11:13:59;;;;;;;13.48;7.63;;;15.10;48.70;;;;;;5052381;28;20535;-76
2021/03/01 11:16:25;;;;;;;9.02;7.40;;;14.80;50.90;;;;;;5052104;28;20025;-76
2021/03/01 11:18:50;;;;;;;16.65;7.68;;;14.80;50.60;;;;;;5052307;28;20150;-76
2021/03/01 11:21:16;;;;;;;12.70;7.55;;;14.70;51.00;;;;;;5034802;28;20378;-76
2021/03/01 11:23:42;;;;;;;22.00;7.63;;;15.00;49.60;;;;;;5051982;28;20025;-76
2021/03/01 11:26:08;;;;;;;12.25;6.85;;;14.90;49.40;;;;;;5034701;28;20025;-77
2021/03/01 11:28:34;;;;;;;15.55;7.85;;;15.40;48.20;;;;;;5051807;28;20043;-76
2021/03/01 11:31:00;;;;;;;12.93;6.85;;;15.30;48.20;;;;;;5052320;28;20032;-76
2021/03/01 11:33:26;;;;;;;16.83;6.10;;;15.60;48.40;;;;;;5052026;28;20021;-77
2021/03/01 11:35:54;;;;;;;8.00;5.93;;;15.80;46.60;;;;;;5033854;28;20045;-76
2021/03/01 11:38:21;;;;;;;14.63;6.85;;;16.30;46.00;;;;;;5052486;28;20596;-76
2021/03/01 11:40:47;;;;;;;14.93;6.00;;;16.00;46.30;;;;;;5051578;28;20477;-76
2021/03/01 11:43:13;;;;;;;19.65;5.88;;;16.20;45.70;;;;;;5052278;28;20511;-76
2021/03/01 11:45:39;;;;;;;9.77;6.15;;;16.00;46.40;;;;;;5051459;28;20045;-76
2021/03/01 11:48:05;;;;;;;7.78;5.47;;;16.20;45.70;;;;;;5034433;28;20017;-77
2021/03/01 11:50:31;;;;;;;11.57;5.57;;;16.30;44.70;;;;;;5051439;28;20025;-76
2021/03/01 11:52:56;;;;;;;6.78;5.13;;;16.40;44.20;;;;;;5034205;28;20032;-77
2021/03/01 11:55:22;;;;;;;7.82;5.57;;;16.40;45.20;;;;;;5052207;28;20047;-76
2021/03/01 11:57:48;;;;;;;8.68;6.22;;;16.50;44.70;;;;;;5051639;28;20032;-77
2021/03/01 12:00:16;;;;;;;8.43;6.15;;;16.40;45.90;;;;;;5052095;28;20032;-76
2021/03/01 12:02:42;;;;;;;9.18;6.40;;;16.60;45.60;;;;;;5051444;28;20025;-77
2021/03/01 12:05:08;;;;;;;11.38;6.88;;;17.30;44.50;;;;;;5033822;28;20040;-77
2021/03/01 12:07:35;;;;;;;12.60;6.85;;;17.70;44.20;;;;;;5051510;28;20101;-76
2021/03/01 12:10:02;;;;;;;11.45;5.85;;;16.70;45.30;;;;;;5052281;28;20017;-75
2021/03/01 12:12:28;;;;;;;19.80;6.25;;;16.90;44.70;;;;;;5033999;28;20032;-75
2021/03/01 12:14:54;;;;;;;9.05;5.47;;;17.30;43.70;;;;;;5051674;28;20033;-75
2021/03/01 12:17:20;;;;;;;8.45;6.03;;;17.50;43.30;;;;;;5033805;28;20028;-75
2021/03/01 12:19:46;;;;;;;8.93;6.30;;;17.70;42.70;;;;;;5051910;28;20017;-75
2021/03/01 12:22:12;;;;;;;8.02;6.60;;;17.60;43.10;;;;;;5051795;28;20626;-75
2021/03/01 12:24:38;;;;;;;11.20;6.40;;;17.30;42.40;;;;;;5033313;28;20056;-75
2021/03/01 12:27:03;;;;;;;7.95;5.75;;;17.30;43.60;;;;;;5051967;28;20047;-76
2021/03/01 12:29:29;;;;;;;11.35;6.25;;;17.10;43.00;;;;;;5051950;28;20031;-75
2021/03/01 12:31:55;;;;;;;11.23;6.03;;;17.10;42.50;;;;;;5051333;28;20029;-76
2021/03/01 12:34:21;;;;;;;7.82;6.13;;;17.10;42.80;;;;;;5051503;28;20431;-75
2021/03/01 12:36:47;;;;;;;10.63;5.38;;;17.20;43.40;;;;;;5033275;28;20030;-75
2021/03/01 12:39:13;;;;;;;9.73;6.00;;;17.30;44.00;;;;;;5028791;28;20524;-75
2021/03/01 12:41:41;;;;;;;8.70;5.55;;;17.90;43.00;;;;;;5051142;28;20100;-76
2021/03/01 12:44:07;;;;;;;7.65;5.90;;;17.90;42.60;;;;;;5051228;28;20078;-76
2021/03/01 12:46:33;;;;;;;9.18;5.93;;;18.60;40.80;;;;;;5051016;28;20419;-76
2021/03/01 12:48:58;;;;;;;9.48;5.95;;;18.40;40.80;;;;;;5050057;28;20124;-75
2021/03/01 12:51:24;;;;;;;12.52;5.93;;;18.50;40.80;;;;;;5051458;28;20029;-75
2021/03/01 12:53:50;;;;;;;17.33;6.00;;;18.60;42.10;;;;;;5050552;28;20029;-77